Time;durP1;ratioP1;P1;durP2;ratioP2;P2;SDS_P1;SDS_P2;PMS_P1;PMS_P2;Temp;Humidity;BMP_temperature;BMP_pressure;BME280_temperature;BME280_humidity;BME280_pressure;Samples;Min_cycle;Max_cycle;Signal;HPM_P1;HPM_P2
2022/09/10 00:00:53;;;;;;;1.80;1.30;;;15.20;99.90;;;;;;5054675;28;20448;-63
2022/09/10 00:03:20;;;;;;;3.73;1.47;;;15.20;99.90;;;;;;5053571;28;20472;-63
2022/09/10 00:05:47;;;;;;;1.40;1.00;;;15.20;99.90;;;;;;5053417;28;20444;-63
2022/09/10 00:08:14;;;;;;;2.00;1.07;;;15.20;99.90;;;;;;5052736;28;20920;-62
2022/09/10 00:10:42;;;;;;;0.97;0.97;;;15.20;99.90;;;;;;5053133;28;20451;-61
2022/09/10 00:13:12;;;;;;;1.23;0.90;;;15.20;99.90;;;;;;5053112;28;20817;-62
2022/09/10 00:15:39;;;;;;;6.10;1.53;;;15.20;99.90;;;;;;5052919;28;20482;-62
2022/09/10 00:18:07;;;;;;;1.40;0.90;;;15.10;99.90;;;;;;5052656;28;20989;-63
2022/09/10 00:20:34;;;;;;;2.90;1.53;;;15.10;99.90;;;;;;5052990;28;20471;-63
2022/09/10 00:23:01;;;;;;;1.20;1.10;;;15.10;99.90;;;;;;5053133;28;20490;-62
2022/09/10 00:25:31;;;;;;;1.20;0.93;;;15.10;99.90;;;;;;5054341;28;20876;-62
2022/09/10 00:27:59;;;;;;;2.20;1.10;;;15.10;99.90;;;;;;5057947;28;20444;-63
2022/09/10 00:30:28;;;;;;;2.03;0.90;;;15.10;99.90;;;;;;5057079;28;20444;-63
2022/09/10 00:32:55;;;;;;;1.40;1.20;;;15.10;99.90;;;;;;5056912;28;20898;-63
2022/09/10 00:35:22;;;;;;;1.60;1.13;;;15.10;99.90;;;;;;5056905;28;20483;-62
2022/09/10 00:37:49;;;;;;;3.40;1.30;;;15.10;99.90;;;;;;5057190;28;20452;-62
2022/09/10 00:40:16;;;;;;;1.30;1.20;;;15.10;99.90;;;;;;5056873;28;20818;-63
2022/09/10 00:42:43;;;;;;;1.70;1.30;;;15.10;99.90;;;;;;5056424;28;20975;-62
2022/09/10 00:45:17;;;;;;;4.23;1.40;;;15.10;99.90;;;;;;5056660;28;20447;-62
2022/09/10 00:47:46;;;;;;;2.10;1.17;;;15.10;99.90;;;;;;5056600;28;20432;-63
2022/09/10 00:50:20;;;;;;;2.20;1.47;;;15.10;99.90;;;;;;5056344;28;20448;-63
2022/09/10 00:52:47;;;;;;;3.07;1.47;;;15.10;99.90;;;;;;5056644;28;20459;-62
2022/09/10 00:55:16;;;;;;;2.23;0.90;;;15.10;99.90;;;;;;5056193;28;20995;-62
2022/09/10 00:57:45;;;;;;;3.50;1.30;;;15.10;99.90;;;;;;5056501;28;20470;-63
2022/09/10 01:00:13;;;;;;;1.93;1.20;;;15.10;99.90;;;;;;5056435;28;20448;-62
2022/09/10 01:02:41;;;;;;;2.00;1.30;;;15.10;99.90;;;;;;5056773;28;20463;-62
2022/09/10 01:05:10;;;;;;;1.60;1.20;;;15.10;99.90;;;;;;5056136;28;20439;-62
2022/09/10 01:07:38;;;;;;;1.53;1.33;;;15.10;99.90;;;;;;5056331;28;20444;-62
2022/09/10 01:10:10;;;;;;;1.50;0.97;;;15.10;99.90;;;;;;5056109;28;21058;-63
2022/09/10 01:13:04;;;;;;;3.30;1.50;;;15.10;99.90;;;;;;5056511;28;20468;-63
2022/09/10 01:15:42;;;;;;;1.17;1.00;;;15.10;99.90;;;;;;5056230;28;20464;-62
2022/09/10 01:18:24;;;;;;;5.80;1.33;;;15.10;99.90;;;;;;5056890;28;20459;-62
2022/09/10 01:21:21;;;;;;;1.87;1.17;;;15.10;99.90;;;;;;5056288;28;20442;-62
2022/09/10 01:24:20;;;;;;;1.70;1.43;;;15.10;99.90;;;;;;5056089;28;20471;-63
2022/09/10 01:27:16;;;;;;;1.40;1.10;;;15.10;99.90;;;;;;5056855;28;20481;-63
2022/09/10 01:29:51;;;;;;;2.00;1.33;;;15.10;99.90;;;;;;5056154;28;20424;-62
2022/09/10 01:32:26;;;;;;;1.13;1.03;;;15.10;99.90;;;;;;5055935;28;20482;-63
2022/09/10 01:35:02;;;;;;;2.20;1.27;;;15.10;99.90;;;;;;5055936;28;20472;-63
2022/09/10 01:37:31;;;;;;;3.27;1.80;;;15.10;99.90;;;;;;5054869;28;20435;-63
2022/09/10 01:40:00;;;;;;;3.33;1.43;;;15.10;99.90;;;;;;5055576;28;20974;-62
2022/09/10 01:42:27;;;;;;;4.40;1.37;;;15.10;99.90;;;;;;5055681;28;20511;-63
2022/09/10 01:44:56;;;;;;;1.57;1.37;;;15.10;99.90;;;;;;5055666;28;20444;-62
2022/09/10 01:47:35;;;;;;;2.57;1.30;;;15.10;99.90;;;;;;5056242;28;20448;-63
2022/09/10 01:50:21;;;;;;;1.50;1.30;;;15.10;99.90;;;;;;5055224;28;20490;-62
2022/09/10 01:53:01;;;;;;;2.60;1.77;;;15.10;99.90;;;;;;5055155;28;20822;-63
2022/09/10 01:55:34;;;;;;;2.37;1.30;;;15.10;99.90;;;;;;5055858;28;20790;-63
2022/09/10 01:58:18;;;;;;;2.13;1.63;;;15.10;99.90;;;;;;5055909;28;20437;-63
2022/09/10 02:00:54;;;;;;;1.77;1.60;;;15.10;99.90;;;;;;5055126;28;20433;-63
2022/09/10 02:03:24;;;;;;;4.50;1.43;;;15.10;99.90;;;;;;5055312;28;20468;-63
2022/09/10 02:05:54;;;;;;;1.80;1.27;;;15.10;99.90;;;;;;5055020;28;20485;-63
2022/09/10 02:08:25;;;;;;;2.30;1.50;;;15.10;99.90;;;;;;5055232;28;20444;-63
2022/09/10 02:10:54;;;;;;;3.83;3.00;;;15.10;99.90;;;;;;5055632;28;20428;-63
2022/09/10 02:13:22;;;;;;;1.60;1.37;;;15.20;99.90;;;;;;5055347;28;20464;-63
2022/09/10 02:15:51;;;;;;;1.90;1.70;;;15.20;99.90;;;;;;5054618;28;20476;-62
2022/09/10 02:18:19;;;;;;;1.90;1.53;;;15.20;99.90;;;;;;5054724;28;20445;-63
2022/09/10 02:20:47;;;;;;;2.33;1.87;;;15.20;99.90;;;;;;5054705;28;20954;-63
2022/09/10 02:23:18;;;;;;;2.43;1.20;;;15.20;99.90;;;;;;5072492;22;20489;-61
2022/09/10 02:25:45;;;;;;;2.47;1.63;;;15.20;99.90;;;;;;5034763;28;20471;-62
2022/09/10 02:28:12;;;;;;;1.60;1.50;;;15.20;99.90;;;;;;5035798;28;20441;-62
2022/09/10 02:30:39;;;;;;;1.37;1.20;;;15.20;99.90;;;;;;5034883;28;20441;-62
2022/09/10 02:33:07;;;;;;;3.33;1.63;;;15.20;99.90;;;;;;5034588;28;20461;-62
2022/09/10 02:35:34;;;;;;;1.80;1.13;;;15.20;99.90;;;;;;5034908;28;20477;-62
2022/09/10 02:38:01;;;;;;;3.90;1.50;;;15.20;99.90;;;;;;5034643;28;20449;-62
2022/09/10 02:40:30;;;;;;;1.43;1.10;;;15.20;99.90;;;;;;5034581;28;20448;-62
2022/09/10 02:42:57;;;;;;;2.00;1.60;;;15.20;99.90;;;;;;5034380;28;20846;-62
2022/09/10 02:45:24;;;;;;;2.83;1.37;;;15.20;99.90;;;;;;5034541;28;20456;-62
2022/09/10 02:47:51;;;;;;;2.17;1.43;;;15.20;99.90;;;;;;5034003;28;21003;-62
2022/09/10 02:50:19;;;;;;;3.03;1.20;;;15.10;99.90;;;;;;5033618;28;20448;-62
2022/09/10 02:52:46;;;;;;;2.43;1.43;;;15.20;99.90;;;;;;5034023;28;21021;-62
2022/09/10 02:55:13;;;;;;;3.33;1.27;;;15.20;99.90;;;;;;5034243;28;20823;-62
2022/09/10 02:57:41;;;;;;;2.70;1.40;;;15.10;99.90;;;;;;5034225;28;20453;-62
2022/09/10 03:00:09;;;;;;;3.60;1.83;;;15.10;99.90;;;;;;5034193;28;20449;-62
2022/09/10 03:02:35;;;;;;;2.57;1.40;;;15.10;99.90;;;;;;5033854;28;20449;-62
2022/09/10 03:05:04;;;;;;;2.90;1.63;;;15.20;99.90;;;;;;5034070;28;20929;-62
2022/09/10 03:07:33;;;;;;;2.77;1.40;;;15.10;99.90;;;;;;5034169;28;20479;-60
2022/09/10 03:09:59;;;;;;;2.07;1.53;;;15.10;99.90;;;;;;5035581;28;20449;-60
2022/09/10 03:12:26;;;;;;;2.20;1.60;;;15.10;99.90;;;;;;5035350;28;20937;-63
2022/09/10 03:14:53;;;;;;;2.00;1.70;;;15.10;99.90;;;;;;5034406;28;20437;-63
2022/09/10 03:17:20;;;;;;;3.87;1.97;;;15.10;99.90;;;;;;5033875;28;20508;-61
2022/09/10 03:19:46;;;;;;;2.80;1.70;;;15.10;99.90;;;;;;5033793;28;20445;-62
2022/09/10 03:22:14;;;;;;;2.83;1.57;;;15.10;99.90;;;;;;5033622;28;20952;-61
2022/09/10 03:24:42;;;;;;;3.57;2.00;;;15.20;99.90;;;;;;5033409;28;20479;-62
2022/09/10 03:27:09;;;;;;;1.90;1.57;;;15.10;99.90;;;;;;5033796;28;20498;-62
2022/09/10 03:29:36;;;;;;;1.80;1.50;;;15.20;99.90;;;;;;5033437;28;20810;-61
2022/09/10 03:32:03;;;;;;;3.60;1.60;;;15.20;99.90;;;;;;5033608;28;20449;-62
2022/09/10 03:34:30;;;;;;;2.37;1.77;;;15.20;99.90;;;;;;5033612;28;20468;-61
2022/09/10 03:36:56;;;;;;;3.37;1.93;;;15.20;99.90;;;;;;5033348;28;20491;-61
2022/09/10 03:39:23;;;;;;;4.47;2.40;;;15.20;99.90;;;;;;5033391;28;20928;-62
2022/09/10 03:41:51;;;;;;;3.30;2.17;;;15.20;99.90;;;;;;5034031;28;20449;-62
2022/09/10 03:44:18;;;;;;;2.93;2.10;;;15.10;99.90;;;;;;5033247;28;20464;-62
2022/09/10 03:46:47;;;;;;;2.23;1.90;;;15.10;99.90;;;;;;5033392;28;20540;-62
2022/09/10 03:49:14;;;;;;;3.40;1.93;;;15.00;99.90;;;;;;5033288;28;20499;-62
2022/09/10 03:51:41;;;;;;;4.10;2.80;;;15.00;99.90;;;;;;5033136;28;20444;-62
2022/09/10 03:54:08;;;;;;;4.27;2.67;;;15.00;99.90;;;;;;5033248;28;20508;-62
2022/09/10 03:56:35;;;;;;;5.30;2.30;;;14.90;99.90;;;;;;5033456;28;20487;-62
2022/09/10 03:59:03;;;;;;;2.63;2.43;;;14.90;99.90;;;;;;5033246;28;20467;-62
2022/09/10 04:01:30;;;;;;;4.43;2.40;;;14.90;99.90;;;;;;5032842;28;20445;-64
2022/09/10 04:03:57;;;;;;;4.40;2.33;;;14.90;99.90;;;;;;5033170;28;20469;-63
2022/09/10 04:06:24;;;;;;;3.70;2.30;;;14.90;99.90;;;;;;5033231;28;20437;-63
2022/09/10 04:10:13;;;;;;;5.40;2.40;;;14.90;99.90;;;;;;5091092;28;20551;-61
2022/09/10 04:12:39;;;;;;;4.60;2.60;;;14.90;99.90;;;;;;5090955;28;20442;-61
2022/09/10 04:15:08;;;;;;;7.03;2.50;;;14.90;99.90;;;;;;5090828;28;20443;-61
2022/09/10 04:17:35;;;;;;;5.17;2.17;;;14.90;99.90;;;;;;5091345;28;20442;-62
2022/09/10 04:20:03;;;;;;;2.70;2.30;;;14.90;99.90;;;;;;5091673;28;20503;-61
2022/09/10 04:22:29;;;;;;;5.03;2.50;;;14.90;99.90;;;;;;5090681;28;20549;-61
2022/09/10 04:24:56;;;;;;;4.70;2.80;;;14.80;99.90;;;;;;5091077;28;20438;-62
2022/09/10 04:27:25;;;;;;;3.50;2.57;;;14.80;99.90;;;;;;5090443;28;20445;-62
2022/09/10 04:29:52;;;;;;;4.63;2.17;;;14.80;99.90;;;;;;5090901;28;20477;-61
2022/09/10 04:32:19;;;;;;;6.20;2.67;;;14.80;99.90;;;;;;5090407;28;20442;-62
2022/09/10 04:34:45;;;;;;;4.20;2.37;;;14.70;99.90;;;;;;5090506;28;20463;-62
2022/09/10 04:37:12;;;;;;;3.73;2.50;;;14.80;99.90;;;;;;5090497;28;20438;-62
2022/09/10 04:39:39;;;;;;;4.00;2.63;;;14.70;99.90;;;;;;5090709;28;20438;-61
2022/09/10 04:42:08;;;;;;;4.17;2.87;;;14.70;99.90;;;;;;5090275;28;20446;-62
2022/09/10 04:44:36;;;;;;;4.67;2.83;;;14.70;99.90;;;;;;5089696;28;21061;-62
2022/09/10 04:47:03;;;;;;;3.93;2.87;;;14.70;99.90;;;;;;5089827;28;20960;-61
2022/09/10 04:49:30;;;;;;;4.40;2.80;;;14.70;99.90;;;;;;5090214;28;20511;-60
2022/09/10 04:51:57;;;;;;;4.70;2.60;;;14.70;99.90;;;;;;5090613;28;20446;-61
2022/09/10 04:54:23;;;;;;;3.17;2.87;;;14.60;99.90;;;;;;5089955;28;20469;-61
2022/09/10 04:56:51;;;;;;;3.13;2.33;;;14.60;99.90;;;;;;5089950;28;20444;-61
2022/09/10 04:59:17;;;;;;;3.30;2.50;;;14.60;99.90;;;;;;5089990;28;20449;-61
2022/09/10 05:01:46;;;;;;;4.13;2.80;;;14.60;99.90;;;;;;5089586;28;20935;-61
2022/09/10 05:04:13;;;;;;;6.33;2.80;;;14.50;99.90;;;;;;5091745;28;20494;-61
2022/09/10 05:06:40;;;;;;;3.70;2.80;;;14.60;99.90;;;;;;5091578;28;20453;-61
2022/09/10 05:09:07;;;;;;;4.83;2.80;;;14.50;99.90;;;;;;5089885;28;20478;-61
2022/09/10 05:11:35;;;;;;;3.10;2.70;;;14.60;99.90;;;;;;5090185;28;20438;-61
2022/09/10 05:14:02;;;;;;;2.63;2.40;;;14.60;99.90;;;;;;5089934;28;20860;-61
2022/09/10 05:16:29;;;;;;;6.97;3.03;;;14.60;99.90;;;;;;5089818;28;20465;-61
2022/09/10 05:18:58;;;;;;;2.60;2.40;;;14.60;99.90;;;;;;5089777;28;20457;-61
2022/09/10 05:21:25;;;;;;;3.23;2.93;;;14.60;99.90;;;;;;5077381;28;20973;-62
2022/09/10 05:23:51;;;;;;;3.53;2.67;;;14.70;99.90;;;;;;5076520;28;20554;-61
2022/09/10 05:26:18;;;;;;;3.97;2.67;;;14.70;99.90;;;;;;5075925;28;20938;-61
2022/09/10 05:28:45;;;;;;;2.70;2.37;;;14.80;99.90;;;;;;5075976;28;20471;-63
2022/09/10 05:31:12;;;;;;;5.70;3.10;;;14.80;99.90;;;;;;5076051;28;20447;-61
2022/09/10 05:33:39;;;;;;;3.33;2.73;;;14.90;99.90;;;;;;5076202;28;20815;-61
2022/09/10 05:36:09;;;;;;;3.80;2.90;;;14.90;99.90;;;;;;5075783;28;20453;-61
2022/09/10 05:38:36;;;;;;;4.30;2.27;;;15.00;99.90;;;;;;5075502;28;20463;-61
2022/09/10 05:41:03;;;;;;;4.63;2.60;;;15.00;99.90;;;;;;5076240;28;20466;-61
2022/09/10 05:43:29;;;;;;;6.50;2.50;;;15.10;99.90;;;;;;5075356;28;20861;-61
2022/09/10 05:45:56;;;;;;;8.27;2.77;;;15.10;99.90;;;;;;5075735;28;20454;-61
2022/09/10 05:48:23;;;;;;;2.67;2.43;;;15.10;99.90;;;;;;5075710;28;20452;-61
2022/09/10 05:50:50;;;;;;;7.37;2.67;;;15.20;99.90;;;;;;5075908;28;20443;-61
2022/09/10 05:53:18;;;;;;;2.57;2.30;;;15.20;99.90;;;;;;5075382;28;20475;-61
2022/09/10 05:55:45;;;;;;;4.13;1.90;;;15.30;99.90;;;;;;5076844;28;20447;-61
2022/09/10 05:58:13;;;;;;;2.50;1.87;;;15.30;99.90;;;;;;5077249;28;20790;-62
2022/09/10 06:00:41;;;;;;;4.70;2.00;;;15.40;99.90;;;;;;5077218;28;20443;-63
2022/09/10 06:03:09;;;;;;;2.40;2.20;;;15.50;99.90;;;;;;5079413;28;20471;-61
2022/09/10 06:05:36;;;;;;;2.60;2.00;;;15.50;99.90;;;;;;5075294;28;20451;-62
2022/09/10 06:08:03;;;;;;;3.57;2.10;;;15.60;99.90;;;;;;5075812;28;20501;-62
2022/09/10 06:10:31;;;;;;;2.83;2.20;;;15.60;99.90;;;;;;5075613;28;20468;-61
2022/09/10 06:12:58;;;;;;;2.70;2.10;;;15.60;99.90;;;;;;5075423;28;20596;-62
2022/09/10 06:15:25;;;;;;;5.53;2.10;;;15.70;99.90;;;;;;5075750;28;20973;-62
2022/09/10 06:17:54;;;;;;;5.03;2.40;;;15.70;99.90;;;;;;5075587;28;20479;-62
2022/09/10 06:20:22;;;;;;;3.37;2.43;;;15.80;99.90;;;;;;5075298;28;20447;-61
2022/09/10 06:22:49;;;;;;;3.93;2.10;;;15.80;99.90;;;;;;5075049;28;20561;-61
2022/09/10 06:25:15;;;;;;;3.43;2.30;;;15.90;99.90;;;;;;5075394;28;20502;-61
2022/09/10 06:27:44;;;;;;;2.60;2.20;;;15.90;99.90;;;;;;5075515;28;20518;-61
2022/09/10 06:30:11;;;;;;;3.60;1.87;;;15.90;99.90;;;;;;5075008;28;20474;-59
2022/09/10 06:32:38;;;;;;;6.00;3.40;;;15.90;99.90;;;;;;5073933;28;20933;-62
2022/09/10 06:35:05;;;;;;;3.17;2.20;;;15.90;99.90;;;;;;5074735;28;20462;-60
2022/09/10 06:37:33;;;;;;;4.80;2.13;;;15.90;99.90;;;;;;5074667;28;20443;-60
2022/09/10 06:40:00;;;;;;;3.73;2.50;;;15.90;99.90;;;;;;5074502;28;20935;-61
2022/09/10 06:42:27;;;;;;;2.30;2.10;;;15.80;99.90;;;;;;5075281;28;20444;-61
2022/09/10 06:44:56;;;;;;;4.77;2.63;;;15.80;99.90;;;;;;5075246;28;20812;-61
2022/09/10 06:47:22;;;;;;;3.00;2.70;;;15.80;99.90;;;;;;5074744;28;20451;-62
2022/09/10 06:49:49;;;;;;;3.43;2.50;;;15.80;99.90;;;;;;5074903;28;20558;-63
2022/09/10 06:52:16;;;;;;;3.57;2.47;;;15.80;99.90;;;;;;5074877;28;20871;-62
2022/09/10 06:54:43;;;;;;;6.30;2.90;;;15.80;99.90;;;;;;5074540;28;21000;-62
2022/09/10 06:57:10;;;;;;;7.10;2.63;;;15.90;99.90;;;;;;5074620;28;20815;-61
2022/09/10 06:59:37;;;;;;;4.07;2.60;;;16.00;99.90;;;;;;5074131;28;20447;-61
2022/09/10 07:02:05;;;;;;;2.53;2.30;;;16.10;99.90;;;;;;5074312;28;20641;-61
2022/09/10 07:04:32;;;;;;;4.67;2.70;;;16.20;99.90;;;;;;5073763;28;20476;-60
2022/09/10 07:06:59;;;;;;;2.27;1.90;;;16.30;99.90;;;;;;5073812;28;20956;-60
2022/09/10 07:09:26;;;;;;;2.80;2.10;;;16.40;99.90;;;;;;5073874;28;21005;-61
2022/09/10 07:11:53;;;;;;;2.70;1.83;;;16.50;99.90;;;;;;5074066;28;20443;-61
2022/09/10 07:14:20;;;;;;;3.53;2.37;;;16.60;99.90;;;;;;5073850;28;20536;-60
2022/09/10 07:16:49;;;;;;;4.60;2.03;;;16.70;99.90;;;;;;5073877;28;20451;-60
2022/09/10 07:19:17;;;;;;;2.20;1.60;;;16.90;99.90;;;;;;5074334;28;20512;-59
2022/09/10 07:21:44;;;;;;;4.03;2.50;;;17.00;99.90;;;;;;5073854;28;20447;-63
2022/09/10 07:24:13;;;;;;;3.27;2.00;;;17.10;99.90;;;;;;5073871;28;21005;-62
2022/09/10 07:26:40;;;;;;;2.40;1.90;;;17.20;99.90;;;;;;5073704;28;20497;-61
2022/09/10 07:29:06;;;;;;;2.67;2.10;;;17.30;99.90;;;;;;5074051;28;20475;-60
2022/09/10 07:31:36;;;;;;;3.50;1.77;;;17.40;99.90;;;;;;5073520;28;20435;-60
2022/09/10 07:34:03;;;;;;;3.47;1.70;;;17.40;99.90;;;;;;5073627;28;20544;-57
2022/09/10 07:36:32;;;;;;;2.80;1.70;;;17.50;99.90;;;;;;5073249;28;20454;-58
2022/09/10 07:39:00;;;;;;;2.80;1.93;;;17.70;99.90;;;;;;5073559;28;20501;-60
2022/09/10 07:41:28;;;;;;;2.57;1.57;;;17.80;99.90;;;;;;5073235;28;20840;-62
2022/09/10 07:43:55;;;;;;;2.53;1.57;;;17.80;99.90;;;;;;5073657;28;20469;-61
2022/09/10 07:46:24;;;;;;;3.13;1.80;;;17.90;99.90;;;;;;5074802;28;20443;-59
2022/09/10 07:48:53;;;;;;;3.50;2.30;;;18.00;99.90;;;;;;5074034;28;20539;-58
2022/09/10 07:51:20;;;;;;;5.60;4.13;;;18.00;99.90;;;;;;5073658;28;20443;-59
2022/09/10 07:53:53;;;;;;;6.90;2.20;;;18.10;99.90;;;;;;5073462;28;20966;-61
2022/09/10 07:56:22;;;;;;;5.97;3.80;;;18.20;99.90;;;;;;5073554;28;20431;-61
2022/09/10 07:58:49;;;;;;;13.87;2.97;;;18.30;99.90;;;;;;5073260;28;20455;-61
2022/09/10 08:01:18;;;;;;;2.47;1.60;;;18.40;99.90;;;;;;5072753;28;20440;-60
2022/09/10 08:03:45;;;;;;;2.63;2.10;;;18.50;99.90;;;;;;5073131;28;20468;-61
2022/09/10 08:06:12;;;;;;;3.67;1.60;;;18.50;99.90;;;;;;5072941;28;20942;-61
2022/09/10 08:08:39;;;;;;;3.20;2.17;;;18.60;99.90;;;;;;5073535;28;20463;-61
2022/09/10 08:11:10;;;;;;;3.80;1.80;;;18.70;99.90;;;;;;5073031;28;20479;-61
2022/09/10 08:13:37;;;;;;;2.73;2.43;;;18.80;99.90;;;;;;5072803;28;20569;-59
2022/09/10 08:16:06;;;;;;;2.87;2.10;;;18.90;99.90;;;;;;5073177;28;20451;-59
2022/09/10 08:18:34;;;;;;;2.40;1.83;;;19.00;99.90;;;;;;5072665;28;20935;-59
2022/09/10 08:21:01;;;;;;;8.00;2.00;;;19.00;99.90;;;;;;5072907;28;20915;-60
2022/09/10 08:23:28;;;;;;;2.93;1.83;;;19.10;99.90;;;;;;5081976;22;20481;-62
2022/09/10 08:25:55;;;;;;;5.37;1.80;;;19.20;99.90;;;;;;5032815;28;20426;-62
2022/09/10 08:28:23;;;;;;;2.30;1.60;;;19.30;99.90;;;;;;5032687;28;20538;-62
2022/09/10 08:30:58;;;;;;;3.40;2.13;;;19.40;99.90;;;;;;5033635;28;20502;-61
2022/09/10 08:33:26;;;;;;;3.07;1.67;;;19.40;99.90;;;;;;5032773;28;20464;-61
2022/09/10 08:35:55;;;;;;;3.57;1.80;;;19.50;99.90;;;;;;5033170;28;20825;-62
2022/09/10 08:38:23;;;;;;;2.30;1.60;;;19.70;99.90;;;;;;5032575;28;20464;-64
2022/09/10 08:40:50;;;;;;;3.00;2.37;;;19.80;99.90;;;;;;5033597;28;20447;-63
2022/09/10 08:43:26;;;;;;;1.30;1.20;;;19.90;99.90;;;;;;5033445;28;20531;-62
2022/09/10 08:45:55;;;;;;;2.90;1.50;;;20.10;99.90;;;;;;5033305;28;20513;-62
2022/09/10 08:48:25;;;;;;;1.50;1.30;;;20.30;99.60;;;;;;5033430;28;20937;-62
2022/09/10 08:50:56;;;;;;;2.13;1.53;;;20.50;99.00;;;;;;5035799;28;20500;-60
2022/09/10 08:53:26;;;;;;;3.30;1.43;;;20.60;98.00;;;;;;5037067;28;20846;-60
2022/09/10 08:55:56;;;;;;;2.50;1.43;;;20.70;97.40;;;;;;5039331;28;20443;-61
2022/09/10 08:58:28;;;;;;;3.23;1.63;;;20.80;97.10;;;;;;5042538;28;20466;-61
2022/09/10 09:00:58;;;;;;;2.70;1.50;;;21.00;96.60;;;;;;5041172;28;20799;-61
2022/09/10 09:03:29;;;;;;;2.60;1.70;;;21.20;95.90;;;;;;5039062;28;20492;-61
2022/09/10 09:05:58;;;;;;;1.40;1.30;;;21.30;95.10;;;;;;5039394;28;20429;-60
2022/09/10 09:08:29;;;;;;;1.60;0.93;;;21.20;94.60;;;;;;5039150;28;20443;-61
2022/09/10 09:11:02;;;;;;;1.93;1.37;;;21.10;94.00;;;;;;5038479;28;20909;-60
2022/09/10 09:13:52;;;;;;;4.17;1.67;;;20.80;93.60;;;;;;5036858;28;20470;-60
2022/09/10 09:16:58;;;;;;;2.40;1.37;;;20.50;93.70;;;;;;5036214;28;20907;-61
2022/09/10 09:19:31;;;;;;;4.33;1.50;;;20.50;94.10;;;;;;5028634;28;20461;-61
2022/09/10 09:22:07;;;;;;;2.53;1.30;;;20.60;93.90;;;;;;5036908;28;20432;-60
2022/09/10 09:24:46;;;;;;;3.10;1.30;;;20.80;93.70;;;;;;5036458;28;20479;-59
2022/09/10 09:27:16;;;;;;;2.60;1.37;;;21.00;93.30;;;;;;5036392;28;20971;-60
2022/09/10 09:29:49;;;;;;;3.33;1.50;;;21.10;92.80;;;;;;5037870;28;20522;-60
2022/09/10 09:32:20;;;;;;;2.03;1.20;;;21.30;92.10;;;;;;5038403;28;20508;-60
2022/09/10 09:34:50;;;;;;;2.30;1.23;;;21.40;91.20;;;;;;5039290;28;20468;-60
2022/09/10 09:37:20;;;;;;;2.33;1.13;;;21.40;90.60;;;;;;5041680;28;20447;-61
2022/09/10 09:39:58;;;;;;;2.40;1.20;;;21.30;90.20;;;;;;5038451;28;20452;-60
2022/09/10 09:42:33;;;;;;;1.97;1.30;;;21.20;90.20;;;;;;5038032;28;20495;-60
2022/09/10 09:45:08;;;;;;;3.13;1.63;;;21.20;90.40;;;;;;5037441;28;20471;-60
2022/09/10 09:47:35;;;;;;;1.73;1.20;;;21.30;90.30;;;;;;5036345;28;20431;-60
2022/09/10 09:50:01;;;;;;;2.40;1.40;;;21.50;90.00;;;;;;5037059;28;20488;-61
2022/09/10 09:52:31;;;;;;;2.87;1.97;;;21.70;89.30;;;;;;5037721;28;20448;-61
2022/09/10 09:55:01;;;;;;;2.20;1.40;;;21.80;88.20;;;;;;5036417;28;20472;-60
2022/09/10 09:57:28;;;;;;;1.13;1.03;;;21.90;87.60;;;;;;5035908;28;20936;-61
2022/09/10 09:59:55;;;;;;;3.90;1.43;;;21.90;86.30;;;;;;5035550;28;20532;-60
2022/09/10 10:02:29;;;;;;;2.50;1.20;;;21.90;85.80;;;;;;5035814;28;20456;-60
2022/09/10 10:05:04;;;;;;;1.87;1.17;;;22.00;85.10;;;;;;5036972;28;20485;-61
2022/09/10 10:07:32;;;;;;;1.33;0.90;;;22.20;83.90;;;;;;5035722;28;20483;-61
2022/09/10 10:10:00;;;;;;;4.80;1.40;;;22.20;82.40;;;;;;5035333;28;20494;-61
2022/09/10 10:12:30;;;;;;;3.03;1.30;;;22.40;82.10;;;;;;5035446;28;20460;-61
2022/09/10 10:14:58;;;;;;;2.60;2.23;;;22.40;80.50;;;;;;5034727;28;20895;-61
2022/09/10 10:17:36;;;;;;;3.77;1.23;;;22.50;80.80;;;;;;5035007;28;20452;-61
2022/09/10 10:20:09;;;;;;;2.30;1.53;;;22.70;78.90;;;;;;5035438;28;20519;-59
2022/09/10 10:22:37;;;;;;;2.20;1.70;;;22.90;77.20;;;;;;5034874;28;20426;-61
2022/09/10 10:25:06;;;;;;;3.43;0.90;;;23.20;76.00;;;;;;5034642;28;20488;-60
2022/09/10 10:27:36;;;;;;;3.10;1.30;;;23.30;74.00;;;;;;5035262;28;20449;-62
2022/09/10 10:30:20;;;;;;;1.57;1.00;;;23.40;72.30;;;;;;5035210;28;20466;-61
2022/09/10 10:32:53;;;;;;;2.13;1.00;;;23.50;71.20;;;;;;5035065;28;20426;-61
2022/09/10 10:35:32;;;;;;;2.70;1.20;;;23.60;70.70;;;;;;5034821;28;20479;-60
2022/09/10 10:38:24;;;;;;;1.43;1.30;;;23.50;69.50;;;;;;5034422;28;20426;-60
2022/09/10 10:41:02;;;;;;;1.33;1.00;;;23.40;69.10;;;;;;5035397;28;20579;-59
2022/09/10 10:43:40;;;;;;;1.97;1.20;;;23.40;68.80;;;;;;5034503;28;21007;-61
2022/09/10 10:46:15;;;;;;;3.93;0.90;;;23.40;68.60;;;;;;5034369;28;20430;-60
2022/09/10 10:49:01;;;;;;;1.90;1.30;;;23.70;68.00;;;;;;5034469;28;20495;-60
2022/09/10 10:51:38;;;;;;;3.37;2.37;;;23.80;66.40;;;;;;5034193;28;20596;-61
2022/09/10 10:54:20;;;;;;;2.50;1.20;;;23.90;66.30;;;;;;5034549;28;20460;-61
2022/09/10 10:56:58;;;;;;;1.87;1.03;;;24.10;65.70;;;;;;5034705;28;20438;-61
2022/09/10 10:59:43;;;;;;;1.33;0.87;;;24.10;64.70;;;;;;5036409;28;20462;-62
2022/09/10 11:02:14;;;;;;;1.53;1.00;;;23.70;64.80;;;;;;5034956;28;20476;-62
2022/09/10 11:04:49;;;;;;;1.70;0.83;;;23.40;65.80;;;;;;5034428;28;20466;-61
2022/09/10 11:07:24;;;;;;;1.50;0.77;;;23.20;66.60;;;;;;5036581;28;20892;-58
2022/09/10 11:09:58;;;;;;;2.87;1.00;;;23.20;66.90;;;;;;5037449;28;20496;-58
2022/09/10 11:12:30;;;;;;;2.23;1.17;;;23.10;66.90;;;;;;5037978;28;20977;-58
2022/09/10 11:15:03;;;;;;;1.97;1.00;;;23.10;66.90;;;;;;5037071;28;20964;-58
2022/09/10 11:17:38;;;;;;;1.70;0.93;;;23.20;66.80;;;;;;5036016;28;20429;-58
2022/09/10 11:20:17;;;;;;;2.07;1.10;;;23.20;66.70;;;;;;5035551;28;20974;-57
2022/09/10 11:22:49;;;;;;;2.23;1.13;;;23.30;66.30;;;;;;5035591;28;20497;-57
2022/09/10 11:25:22;;;;;;;1.70;0.97;;;23.50;65.80;;;;;;5036444;28;20487;-58
2022/09/10 11:27:51;;;;;;;1.47;0.90;;;23.50;65.30;;;;;;5037907;28;20453;-57
2022/09/10 11:30:19;;;;;;;2.13;1.00;;;23.30;65.10;;;;;;5035563;28;20449;-58
2022/09/10 11:32:51;;;;;;;0.93;0.67;;;23.10;65.70;;;;;;5036517;28;20552;-57
2022/09/10 11:35:23;;;;;;;3.20;1.53;;;22.80;66.00;;;;;;5035242;28;20493;-57
2022/09/10 11:38:06;;;;;;;1.43;1.10;;;22.60;66.50;;;;;;5033606;28;20435;-58
2022/09/10 11:40:39;;;;;;;1.67;1.37;;;22.60;67.10;;;;;;5034341;28;20903;-58
2022/09/10 11:43:10;;;;;;;2.17;1.20;;;22.90;67.30;;;;;;5033732;28;20436;-57
2022/09/10 11:45:43;;;;;;;1.60;0.90;;;23.20;66.90;;;;;;5034167;28;20445;-58
2022/09/10 11:48:17;;;;;;;2.63;0.90;;;23.40;66.00;;;;;;5034240;28;20430;-58
2022/09/10 11:50:52;;;;;;;3.70;1.40;;;23.50;66.40;;;;;;5034900;28;20467;-58
2022/09/10 11:53:22;;;;;;;1.50;0.90;;;23.60;65.30;;;;;;5034591;28;20478;-59
2022/09/10 11:56:16;;;;;;;1.10;0.90;;;23.70;65.40;;;;;;5034304;28;20534;-59
2022/09/10 11:58:54;;;;;;;1.37;1.20;;;23.60;65.10;;;;;;5036184;28;20518;-58
2022/09/10 12:01:34;;;;;;;3.00;1.23;;;23.50;65.30;;;;;;5035307;28;20423;-58
2022/09/10 12:04:33;;;;;;;3.57;1.37;;;23.30;65.50;;;;;;5036012;28;20465;-58
2022/09/10 12:07:10;;;;;;;2.00;1.13;;;23.10;65.50;;;;;;5036269;28;20421;-58
2022/09/10 12:09:44;;;;;;;2.40;1.50;;;22.90;65.80;;;;;;5036525;28;20491;-59
2022/09/10 12:12:19;;;;;;;2.00;1.20;;;22.80;66.20;;;;;;5034881;28;20480;-57
2022/09/10 12:14:46;;;;;;;1.67;0.83;;;22.50;66.40;;;;;;5035870;28;20471;-58
2022/09/10 12:17:17;;;;;;;1.60;1.50;;;22.40;67.00;;;;;;5036337;28;20445;-58
2022/09/10 12:19:47;;;;;;;2.20;1.87;;;22.40;67.20;;;;;;5034611;28;20429;-58
2022/09/10 12:22:24;;;;;;;3.63;1.60;;;22.40;67.20;;;;;;5034039;28;20440;-58
2022/09/10 12:24:53;;;;;;;1.70;1.47;;;22.40;67.00;;;;;;5034605;28;20497;-58
2022/09/10 12:27:20;;;;;;;2.57;1.10;;;22.30;67.20;;;;;;5034439;28;20865;-58
2022/09/10 12:29:48;;;;;;;1.60;1.30;;;22.30;67.40;;;;;;5034936;28;20445;-58
2022/09/10 12:32:29;;;;;;;1.47;1.37;;;22.30;67.50;;;;;;5038104;28;20840;-58
2022/09/10 12:35:44;;;;;;;2.90;1.63;;;22.40;67.60;;;;;;5038245;28;20468;-57
2022/09/10 12:38:54;;;;;;;3.50;2.23;;;22.40;67.40;;;;;;5039498;28;20436;-58
2022/09/10 12:41:57;;;;;;;4.87;2.27;;;22.50;67.20;;;;;;5040138;28;20434;-59
2022/09/10 12:44:43;;;;;;;5.83;2.87;;;22.40;67.10;;;;;;5039314;28;20471;-57
2022/09/10 12:47:43;;;;;;;5.73;2.67;;;22.40;67.80;;;;;;5039491;28;20877;-57
2022/09/10 12:50:33;;;;;;;2.37;2.17;;;22.50;68.10;;;;;;5037663;28;20465;-57
2022/09/10 12:53:36;;;;;;;2.53;2.07;;;22.70;67.80;;;;;;5038265;28;20813;-57
2022/09/10 12:56:36;;;;;;;2.50;2.30;;;22.60;67.30;;;;;;5040338;28;20456;-57
2022/09/10 12:59:35;;;;;;;3.10;2.10;;;22.50;67.80;;;;;;5041380;28;20491;-56
2022/09/10 13:02:02;;;;;;;2.90;2.13;;;22.40;68.10;;;;;;5039223;28;20440;-57
2022/09/10 13:04:33;;;;;;;1.93;1.70;;;22.50;68.30;;;;;;5040104;28;20474;-57
2022/09/10 13:07:02;;;;;;;2.03;1.67;;;22.70;68.10;;;;;;5037210;28;20875;-57
2022/09/10 13:09:32;;;;;;;2.10;1.57;;;22.90;67.70;;;;;;5037333;28;20456;-57